Time;durP1;ratioP1;P1;durP2;ratioP2;P2;SDS_P1;SDS_P2;PMS_P1;PMS_P2;Temp;Humidity;BMP_temperature;BMP_pressure;BME280_temperature;BME280_humidity;BME280_pressure;Samples;Min_cycle;Max_cycle;Signal;HPM_P1;HPM_P2
2023/12/28 00:00:11;;;;;;;5.03;3.75;;;;;;;;;;5021954;28;25078;-74
2023/12/28 00:02:37;;;;;;;6.38;3.80;;;;;;;;;;5025769;28;25060;-74
2023/12/28 00:05:03;;;;;;;7.40;3.38;;;;;;;;;;5026210;28;25159;-73
2023/12/28 00:07:29;;;;;;;5.32;3.45;;;;;;;;;;5025840;28;25066;-72
2023/12/28 00:09:55;;;;;;;9.00;3.95;;;;;;;;;;5018977;28;25062;-73
2023/12/28 00:12:22;;;;;;;4.78;3.42;;;;;;;;;;5027079;28;25072;-73
2023/12/28 00:14:48;;;;;;;10.02;4.15;;;;;;;;;;5026203;28;25073;-72
2023/12/28 00:17:14;;;;;;;9.60;3.65;;;;;;;;;;5025793;28;25070;-72
2023/12/28 00:19:40;;;;;;;5.88;3.35;;;;;;;;;;5027748;28;25156;-72
2023/12/28 00:22:06;;;;;;;7.07;3.47;;;;;;;;;;5027911;28;25144;-71
2023/12/28 00:24:32;;;;;;;4.85;3.10;;;;;;;;;;5035443;28;25074;-73
2023/12/28 00:26:58;;;;;;;6.32;3.63;;;;;;;;;;5033218;28;25066;-72
2023/12/28 00:29:24;;;;;;;8.70;3.63;;;;;;;;;;5029940;28;25079;-72
2023/12/28 00:31:50;;;;;;;5.30;3.72;;;;;;;;;;5032845;28;25054;-71
2023/12/28 00:34:16;;;;;;;10.70;4.30;;;;;;;;;;5026044;28;25117;-72
2023/12/28 00:36:42;;;;;;;10.43;3.75;;;;;;;;;;5027292;28;25077;-72
2023/12/28 00:39:08;;;;;;;9.23;3.95;;;;;;;;;;5026153;28;25060;-73
2023/12/28 00:41:34;;;;;;;7.30;3.75;;;;;;;;;;5025064;28;25049;-72
2023/12/28 00:44:01;;;;;;;6.18;3.83;;;;;;;;;;5021836;28;25051;-73
2023/12/28 00:46:27;;;;;;;9.30;4.15;;;;;;;;;;5023023;28;25087;-71
2023/12/28 00:48:53;;;;;;;5.05;3.40;;;;;;;;;;5025415;28;25102;-73
2023/12/28 00:51:20;;;;;;;8.52;3.90;;;;;;;;;;5026028;28;25117;-73
2023/12/28 00:53:46;;;;;;;8.20;3.70;;;;;;;;;;5025616;28;25058;-74
2023/12/28 00:56:12;;;;;;;5.20;3.10;;;;;;;;;;5025265;28;25054;-73
2023/12/28 00:58:41;;;;;;;7.72;3.58;;;;;;;;;;5027410;28;25073;-73
2023/12/28 01:01:06;;;;;;;4.00;3.15;;;;;;;;;;5031293;28;25070;-72
2023/12/28 01:03:32;;;;;;;12.15;3.50;;;;;;;;;;5032747;28;25112;-72
2023/12/28 01:05:58;;;;;;;6.50;3.47;;;;;;;;;;5030615;28;25085;-72
2023/12/28 01:08:24;;;;;;;13.98;3.97;;;;;;;;;;5031733;28;25064;-71
2023/12/28 01:10:50;;;;;;;7.45;3.67;;;;;;;;;;5033441;28;25062;-71
2023/12/28 01:13:17;;;;;;;5.03;3.13;;;;;;;;;;5031581;28;25085;-73
2023/12/28 01:15:43;;;;;;;8.18;3.85;;;;;;;;;;5032380;28;25063;-72
2023/12/28 01:18:09;;;;;;;7.95;4.20;;;;;;;;;;5036760;28;25073;-72
2023/12/28 01:20:35;;;;;;;6.68;3.72;;;;;;;;;;5038295;28;25074;-72
2023/12/28 01:23:01;;;;;;;6.65;3.65;;;;;;;;;;5032124;28;25075;-72
2023/12/28 01:25:27;;;;;;;6.57;4.03;;;;;;;;;;5032791;28;25056;-73
2023/12/28 01:27:53;;;;;;;8.32;3.72;;;;;;;;;;5036369;28;25062;-72
2023/12/28 01:30:19;;;;;;;11.32;3.60;;;;;;;;;;5035615;28;25071;-73
2023/12/28 01:32:45;;;;;;;11.55;4.38;;;;;;;;;;5031472;28;25057;-73
2023/12/28 01:35:11;;;;;;;9.75;4.35;;;;;;;;;;5027712;28;25106;-73
2023/12/28 01:37:37;;;;;;;6.40;3.50;;;;;;;;;;5024683;28;25065;-72
2023/12/28 01:40:03;;;;;;;8.30;3.58;;;;;;;;;;5024875;28;25064;-72
2023/12/28 01:42:30;;;;;;;9.48;3.30;;;;;;;;;;5023597;28;25086;-72
2023/12/28 01:44:57;;;;;;;7.88;2.97;;;;;;;;;;5023981;28;25073;-72
2023/12/28 01:47:23;;;;;;;8.52;3.70;;;;;;;;;;5026335;28;25059;-75
2023/12/28 01:49:49;;;;;;;5.90;3.30;;;;;;;;;;5021142;28;25068;-72
2023/12/28 01:52:15;;;;;;;5.85;3.13;;;;;;;;;;5020993;28;25086;-74
2023/12/28 01:54:41;;;;;;;6.15;4.00;;;;;;;;;;5024741;28;25064;-71
2023/12/28 01:57:07;;;;;;;6.00;2.95;;;;;;;;;;5020524;28;25067;-73
2023/12/28 01:59:33;;;;;;;7.35;3.35;;;;;;;;;;5027706;28;25079;-75
2023/12/28 02:01:59;;;;;;;9.38;3.17;;;;;;;;;;5027565;28;25058;-73
2023/12/28 02:04:28;;;;;;;7.35;2.95;;;;;;;;;;5025909;28;25072;-73
2023/12/28 02:06:58;;;;;;;7.40;3.15;;;;;;;;;;5025239;28;25123;-72
2023/12/28 02:09:24;;;;;;;8.52;4.20;;;;;;;;;;5024279;28;25054;-74
2023/12/28 02:11:50;;;;;;;6.50;3.58;;;;;;;;;;5024470;28;25053;-73
2023/12/28 02:14:16;;;;;;;8.50;3.25;;;;;;;;;;5023957;28;25068;-72
2023/12/28 02:16:45;;;;;;;7.65;3.58;;;;;;;;;;5023236;28;25139;-74
2023/12/28 02:19:30;;;;;;;5.88;3.45;;;;;;;;;;5023342;28;25134;-73
2023/12/28 02:21:56;;;;;;;8.63;2.85;;;;;;;;;;5023504;28;25056;-74
2023/12/28 02:24:22;;;;;;;12.00;3.65;;;;;;;;;;5022628;28;25049;-73
2023/12/28 02:26:48;;;;;;;6.38;3.03;;;;;;;;;;5022039;28;25077;-72
2023/12/28 02:29:14;;;;;;;7.22;2.75;;;;;;;;;;5023527;28;25081;-72
2023/12/28 02:31:43;;;;;;;6.90;3.20;;;;;;;;;;5020563;28;25060;-72
2023/12/28 02:34:12;;;;;;;6.72;3.25;;;;;;;;;;5021327;28;25052;-72
2023/12/28 02:36:42;;;;;;;7.05;3.33;;;;;;;;;;5021707;28;25057;-73
2023/12/28 02:39:08;;;;;;;8.40;3.95;;;;;;;;;;5023609;28;25063;-73
2023/12/28 02:41:34;;;;;;;4.72;2.78;;;;;;;;;;5016646;28;25144;-73
2023/12/28 02:44:00;;;;;;;8.43;2.97;;;;;;;;;;5016663;28;25043;-71
2023/12/28 02:46:26;;;;;;;7.05;2.95;;;;;;;;;;5022864;28;25178;-72
2023/12/28 02:48:52;;;;;;;11.57;3.17;;;;;;;;;;5023071;28;25086;-72
2023/12/28 02:51:18;;;;;;;10.18;3.17;;;;;;;;;;5033331;28;25065;-74
2023/12/28 02:53:44;;;;;;;9.68;3.00;;;;;;;;;;5028819;28;25074;-73
2023/12/28 02:56:10;;;;;;;9.52;3.03;;;;;;;;;;5026100;28;25125;-72
2023/12/28 02:58:36;;;;;;;12.70;3.58;;;;;;;;;;5020744;28;25139;-73
2023/12/28 03:01:02;;;;;;;6.18;2.97;;;;;;;;;;5025103;28;25076;-73
2023/12/28 03:03:28;;;;;;;5.65;2.60;;;;;;;;;;5028831;28;25060;-73
2023/12/28 03:05:54;;;;;;;5.30;2.90;;;;;;;;;;5019572;28;25064;-74
2023/12/28 03:08:20;;;;;;;5.70;3.47;;;;;;;;;;5023251;28;25068;-74
2023/12/28 03:10:46;;;;;;;6.80;3.60;;;;;;;;;;5020718;28;25136;-72
2023/12/28 03:13:12;;;;;;;8.55;3.33;;;;;;;;;;5020328;28;25063;-73
2023/12/28 03:15:38;;;;;;;9.13;3.83;;;;;;;;;;5015626;28;25059;-74
2023/12/28 03:18:04;;;;;;;8.80;2.90;;;;;;;;;;5017768;28;25054;-72
2023/12/28 03:20:30;;;;;;;10.00;2.95;;;;;;;;;;5025732;28;25083;-74
2023/12/28 03:22:56;;;;;;;7.40;3.10;;;;;;;;;;5027158;28;25106;-73
2023/12/28 03:25:22;;;;;;;7.75;4.00;;;;;;;;;;5024685;28;25067;-73
2023/12/28 03:27:47;;;;;;;6.72;3.00;;;;;;;;;;5026028;28;25074;-72
2023/12/28 03:30:13;;;;;;;7.80;2.67;;;;;;;;;;5020598;28;25114;-72
2023/12/28 03:32:39;;;;;;;7.68;3.15;;;;;;;;;;5024747;28;25089;-72
2023/12/28 03:35:07;;;;;;;9.70;3.55;;;;;;;;;;5026393;28;25173;-73
2023/12/28 03:37:33;;;;;;;8.52;3.25;;;;;;;;;;5026031;28;25104;-73
2023/12/28 03:39:59;;;;;;;11.27;3.67;;;;;;;;;;5025417;28;25074;-73
2023/12/28 03:42:25;;;;;;;13.45;3.20;;;;;;;;;;5024714;28;25065;-72
2023/12/28 03:44:51;;;;;;;9.40;3.08;;;;;;;;;;5028461;28;25050;-73
2023/12/28 03:47:16;;;;;;;9.82;3.50;;;;;;;;;;5026438;28;25062;-71
2023/12/28 03:49:42;;;;;;;11.00;3.42;;;;;;;;;;5024767;28;25104;-74
2023/12/28 03:52:08;;;;;;;7.93;3.45;;;;;;;;;;5025450;28;25078;-72
2023/12/28 03:54:34;;;;;;;11.45;3.65;;;;;;;;;;5026831;28;25061;-72
2023/12/28 03:57:00;;;;;;;12.93;3.75;;;;;;;;;;5028466;28;25087;-73
2023/12/28 03:59:26;;;;;;;10.27;3.40;;;;;;;;;;5027384;28;25047;-73
2023/12/28 04:01:52;;;;;;;10.60;3.35;;;;;;;;;;5034324;28;25062;-72
2023/12/28 04:04:18;;;;;;;9.27;3.25;;;;;;;;;;5029081;28;25186;-72
2023/12/28 04:06:44;;;;;;;14.05;3.15;;;;;;;;;;5025776;28;25104;-73
2023/12/28 04:09:12;;;;;;;10.55;3.35;;;;;;;;;;5023994;28;25069;-72
2023/12/28 04:11:38;;;;;;;12.23;3.38;;;;;;;;;;5026136;28;25147;-72
2023/12/28 04:14:04;;;;;;;14.98;3.53;;;;;;;;;;5024447;28;25080;-72
2023/12/28 04:16:30;;;;;;;15.55;3.17;;;;;;;;;;5024261;28;25075;-71
2023/12/28 04:18:55;;;;;;;7.65;2.88;;;;;;;;;;5025977;28;25082;-72
2023/12/28 04:21:21;;;;;;;12.40;3.65;;;;;;;;;;5025909;28;25101;-73
2023/12/28 04:23:47;;;;;;;14.60;3.92;;;;;;;;;;5026233;28;25059;-72
2023/12/28 04:26:13;;;;;;;9.82;2.95;;;;;;;;;;5023700;28;25069;-72
2023/12/28 04:28:39;;;;;;;10.50;3.15;;;;;;;;;;5027407;28;25105;-72
2023/12/28 04:31:06;;;;;;;17.08;3.42;;;;;;;;;;5027686;28;25062;-73
2023/12/28 04:33:32;;;;;;;11.68;3.80;;;;;;;;;;5026570;28;25063;-72
2023/12/28 04:36:01;;;;;;;18.33;3.42;;;;;;;;;;5024196;28;25071;-74
2023/12/28 04:38:27;;;;;;;16.95;3.67;;;;;;;;;;5024762;28;25079;-72
2023/12/28 04:40:53;;;;;;;17.05;4.07;;;;;;;;;;5024322;28;25105;-72
2023/12/28 04:43:19;;;;;;;14.00;2.65;;;;;;;;;;5026428;28;25099;-71
2023/12/28 04:45:45;;;;;;;9.93;3.28;;;;;;;;;;5026354;28;25054;-73
2023/12/28 04:48:11;;;;;;;11.68;3.05;;;;;;;;;;5023783;28;25058;-71
2023/12/28 04:50:36;;;;;;;11.45;3.70;;;;;;;;;;5021009;28;25186;-74
2023/12/28 04:53:03;;;;;;;9.77;2.97;;;;;;;;;;5024493;28;25160;-75
2023/12/28 04:55:29;;;;;;;12.93;3.30;;;;;;;;;;5020685;28;25059;-73
2023/12/28 04:57:55;;;;;;;14.68;3.53;;;;;;;;;;5027403;28;25089;-73
2023/12/28 05:00:21;;;;;;;8.77;2.97;;;;;;;;;;5023182;28;25054;-73
2023/12/28 05:02:47;;;;;;;11.02;3.47;;;;;;;;;;5029308;28;25113;-71
2023/12/28 05:05:13;;;;;;;10.77;3.70;;;;;;;;;;5031760;28;25503;-73
2023/12/28 05:07:39;;;;;;;15.10;3.60;;;;;;;;;;5034960;28;25080;-73
2023/12/28 05:10:05;;;;;;;14.43;3.78;;;;;;;;;;5031748;28;25137;-73
2023/12/28 05:12:31;;;;;;;13.23;3.30;;;;;;;;;;5035545;28;25060;-72
2023/12/28 05:14:57;;;;;;;12.07;3.47;;;;;;;;;;5041202;28;25079;-71
2023/12/28 05:17:23;;;;;;;12.05;3.05;;;;;;;;;;5035217;28;25081;-74
2023/12/28 05:19:49;;;;;;;10.95;3.13;;;;;;;;;;5038039;28;25069;-72
2023/12/28 05:22:15;;;;;;;19.52;4.35;;;;;;;;;;5044544;28;25091;-72
2023/12/28 05:24:41;;;;;;;10.98;3.00;;;;;;;;;;5045270;28;25076;-72
2023/12/28 05:27:07;;;;;;;21.10;4.85;;;;;;;;;;5044011;28;25058;-73
2023/12/28 05:29:33;;;;;;;17.52;3.25;;;;;;;;;;5040203;28;25060;-73
2023/12/28 05:31:59;;;;;;;16.40;3.28;;;;;;;;;;5041281;28;25068;-72
2023/12/28 05:34:25;;;;;;;19.85;3.47;;;;;;;;;;5042317;28;25102;-71
2023/12/28 05:36:51;;;;;;;18.58;2.80;;;;;;;;;;5046253;28;25080;-72
2023/12/28 05:39:17;;;;;;;16.65;3.30;;;;;;;;;;5044992;28;25077;-72
2023/12/28 05:41:44;;;;;;;17.17;3.33;;;;;;;;;;5034604;28;25077;-72
2023/12/28 05:44:10;;;;;;;20.80;3.30;;;;;;;;;;5034837;28;25049;-73
2023/12/28 05:46:36;;;;;;;26.42;4.60;;;;;;;;;;5032632;28;26156;-71
2023/12/28 05:49:02;;;;;;;25.17;4.35;;;;;;;;;;5031163;28;25109;-72
2023/12/28 05:51:28;;;;;;;15.73;4.30;;;;;;;;;;5028276;28;25072;-74
2023/12/28 05:53:54;;;;;;;21.50;3.72;;;;;;;;;;5031324;28;25144;-72
2023/12/28 05:56:20;;;;;;;21.15;5.43;;;;;;;;;;5031978;28;25056;-72
2023/12/28 05:58:46;;;;;;;15.05;3.92;;;;;;;;;;5034659;28;25060;-74
2023/12/28 06:01:12;;;;;;;20.35;4.35;;;;;;;;;;5029301;28;25073;-71
2023/12/28 06:03:38;;;;;;;22.05;4.60;;;;;;;;;;5032419;28;25139;-73
2023/12/28 06:06:04;;;;;;;22.35;4.10;;;;;;;;;;5031327;28;25128;-73
2023/12/28 06:08:30;;;;;;;24.35;4.45;;;;;;;;;;5030115;28;25053;-75
2023/12/28 06:10:56;;;;;;;23.67;4.82;;;;;;;;;;5031128;28;25064;-72
2023/12/28 06:13:23;;;;;;;24.10;4.28;;;;;;;;;;5031470;28;25054;-73
2023/12/28 06:15:49;;;;;;;24.73;4.28;;;;;;;;;;5030707;28;25077;-74
2023/12/28 06:18:15;;;;;;;23.63;3.92;;;;;;;;;;5028908;28;25075;-74
2023/12/28 06:20:41;;;;;;;19.70;4.63;;;;;;;;;;5029821;28;25068;-73
2023/12/28 06:23:08;;;;;;;17.98;3.92;;;;;;;;;;5028847;28;25067;-73
2023/12/28 06:25:34;;;;;;;22.35;4.07;;;;;;;;;;5029311;28;24992;-75
2023/12/28 06:28:00;;;;;;;23.88;4.68;;;;;;;;;;5030281;28;25069;-73
2023/12/28 06:30:26;;;;;;;14.18;3.58;;;;;;;;;;5027017;28;25072;-73
2023/12/28 06:32:52;;;;;;;23.35;4.22;;;;;;;;;;5029724;28;25153;-73
2023/12/28 06:35:18;;;;;;;23.25;3.45;;;;;;;;;;5031119;28;25064;-73
2023/12/28 06:37:44;;;;;;;21.48;4.65;;;;;;;;;;5031400;28;25151;-73
2023/12/28 06:40:10;;;;;;;18.23;4.15;;;;;;;;;;5027484;28;25074;-71
2023/12/28 06:42:36;;;;;;;22.08;5.22;;;;;;;;;;5030979;28;25073;-74
2023/12/28 06:45:02;;;;;;;19.60;4.10;;;;;;;;;;5028320;28;25134;-72
2023/12/28 06:47:28;;;;;;;19.25;3.88;;;;;;;;;;5027244;28;25071;-71
2023/12/28 06:49:54;;;;;;;28.00;4.57;;;;;;;;;;5024646;28;25066;-73
2023/12/28 06:52:20;;;;;;;23.15;4.72;;;;;;;;;;5024272;28;25108;-72
2023/12/28 06:54:46;;;;;;;24.20;3.95;;;;;;;;;;5029378;28;25065;-73
2023/12/28 06:57:12;;;;;;;18.48;4.35;;;;;;;;;;5029035;28;25139;-72
2023/12/28 06:59:38;;;;;;;23.38;4.28;;;;;;;;;;5027196;28;25048;-74
2023/12/28 07:02:04;;;;;;;21.92;4.95;;;;;;;;;;5024676;28;25055;-74
2023/12/28 07:04:30;;;;;;;19.33;4.72;;;;;;;;;;5027711;28;25106;-75
2023/12/28 07:06:56;;;;;;;21.95;4.63;;;;;;;;;;5029558;28;25069;-73
2023/12/28 07:09:22;;;;;;;19.20;4.45;;;;;;;;;;5024402;28;25078;-74
2023/12/28 07:11:48;;;;;;;23.02;5.00;;;;;;;;;;5024736;28;25093;-74
2023/12/28 07:14:14;;;;;;;17.40;4.18;;;;;;;;;;5023298;28;25127;-74
2023/12/28 07:16:39;;;;;;;17.13;4.07;;;;;;;;;;5028547;28;25073;-73
2023/12/28 07:19:05;;;;;;;14.95;3.72;;;;;;;;;;5025735;28;25057;-75
2023/12/28 07:21:31;;;;;;;21.92;4.78;;;;;;;;;;5025818;28;25069;-74
2023/12/28 07:23:57;;;;;;;27.30;4.65;;;;;;;;;;5025969;28;25087;-75
2023/12/28 07:26:23;;;;;;;15.13;4.07;;;;;;;;;;5027861;28;25130;-76
2023/12/28 07:28:49;;;;;;;17.42;4.78;;;;;;;;;;5027005;28;25152;-73
2023/12/28 07:31:25;;;;;;;20.45;4.53;;;;;;;;;;5027781;28;25054;-74
2023/12/28 07:33:51;;;;;;;21.13;4.00;;;;;;;;;;5026977;28;25125;-74
2023/12/28 07:36:17;;;;;;;19.63;5.45;;;;;;;;;;5027197;28;25146;-73
2023/12/28 07:38:44;;;;;;;19.85;4.70;;;;;;;;;;5023766;28;25064;-74
2023/12/28 07:41:10;;;;;;;21.58;5.05;;;;;;;;;;5025754;28;25072;-73
2023/12/28 07:43:36;;;;;;;18.92;3.90;;;;;;;;;;5035737;28;25078;-73
2023/12/28 07:46:03;;;;;;;25.58;4.22;;;;;;;;;;5031196;28;25160;-72
2023/12/28 07:48:30;;;;;;;21.13;4.70;;;;;;;;;;5024445;28;25094;-74
2023/12/28 07:50:57;;;;;;;19.60;4.70;;;;;;;;;;5023941;28;25319;-74
2023/12/28 07:53:23;;;;;;;24.90;4.57;;;;;;;;;;5020386;28;25073;-73
2023/12/28 07:55:49;;;;;;;24.63;5.40;;;;;;;;;;5025173;28;25150;-72
2023/12/28 07:58:15;;;;;;;26.00;5.13;;;;;;;;;;5021892;28;25073;-72
2023/12/28 08:00:41;;;;;;;20.08;3.95;;;;;;;;;;5024435;28;25088;-72
2023/12/28 08:03:07;;;;;;;16.98;4.88;;;;;;;;;;5024624;28;25106;-74
2023/12/28 08:05:33;;;;;;;34.45;5.93;;;;;;;;;;5019335;28;25170;-72
2023/12/28 08:07:59;;;;;;;30.48;4.60;;;;;;;;;;5017451;28;25056;-74
2023/12/28 08:10:25;;;;;;;35.30;6.05;;;;;;;;;;5024576;28;25135;-73
2023/12/28 08:12:51;;;;;;;20.48;3.83;;;;;;;;;;5025849;28;25122;-73
2023/12/28 08:15:17;;;;;;;22.60;4.85;;;;;;;;;;5026441;28;25131;-73
2023/12/28 08:17:43;;;;;;;27.77;5.03;;;;;;;;;;5026033;28;25148;-73
2023/12/28 08:20:09;;;;;;;17.38;4.40;;;;;;;;;;5026151;28;25054;-74
2023/12/28 08:22:35;;;;;;;28.27;4.63;;;;;;;;;;5024675;28;25099;-74
2023/12/28 08:25:01;;;;;;;18.35;4.68;;;;;;;;;;5024174;28;25126;-73
2023/12/28 08:27:27;;;;;;;28.15;4.53;;;;;;;;;;5025661;28;25128;-74
2023/12/28 08:29:53;;;;;;;18.77;4.03;;;;;;;;;;5023556;28;25064;-73
2023/12/28 08:32:19;;;;;;;19.20;5.47;;;;;;;;;;5019995;28;25093;-73
2023/12/28 08:34:46;;;;;;;24.08;5.10;;;;;;;;;;5024573;28;25086;-71
2023/12/28 08:37:12;;;;;;;20.75;4.63;;;;;;;;;;5021911;28;25081;-73
2023/12/28 08:39:39;;;;;;;20.63;4.95;;;;;;;;;;5026179;28;25057;-74
2023/12/28 08:42:05;;;;;;;20.08;4.28;;;;;;;;;;5021573;28;25067;-73
2023/12/28 08:44:32;;;;;;;33.30;6.13;;;;;;;;;;5022966;28;25164;-72
2023/12/28 08:46:58;;;;;;;24.42;5.63;;;;;;;;;;5025540;28;25138;-76
2023/12/28 08:49:25;;;;;;;27.50;5.22;;;;;;;;;;5020960;28;25160;-74
2023/12/28 08:51:51;;;;;;;24.88;4.57;;;;;;;;;;5026363;28;25074;-75
2023/12/28 08:54:17;;;;;;;25.00;4.78;;;;;;;;;;5025760;28;25077;-72
2023/12/28 08:56:43;;;;;;;29.63;6.05;;;;;;;;;;5023871;28;25187;-74
2023/12/28 08:59:09;;;;;;;26.10;4.75;;;;;;;;;;5023400;28;25135;-74
2023/12/28 09:01:35;;;;;;;18.60;4.68;;;;;;;;;;5024555;28;25074;-73
2023/12/28 09:04:01;;;;;;;24.35;4.95;;;;;;;;;;5023340;28;25087;-73
2023/12/28 09:06:27;;;;;;;30.02;6.13;;;;;;;;;;5022758;28;25075;-75
2023/12/28 09:08:53;;;;;;;33.38;4.82;;;;;;;;;;5022474;28;25059;-72
2023/12/28 09:11:19;;;;;;;22.90;4.60;;;;;;;;;;5022338;28;25168;-72
2023/12/28 09:13:46;;;;;;;37.10;6.78;;;;;;;;;;5024590;28;25055;-74
2023/12/28 09:16:13;;;;;;;34.58;5.13;;;;;;;;;;5022046;28;25077;-73
2023/12/28 09:18:39;;;;;;;27.17;5.30;;;;;;;;;;5023902;28;25140;-71
2023/12/28 09:21:05;;;;;;;23.35;4.20;;;;;;;;;;5019339;28;25105;-71
2023/12/28 09:23:31;;;;;;;22.98;4.63;;;;;;;;;;5025192;28;25171;-71
2023/12/28 09:25:58;;;;;;;25.23;5.45;;;;;;;;;;5024479;28;25084;-72
2023/12/28 09:28:24;;;;;;;29.45;5.18;;;;;;;;;;5023228;28;25111;-72
2023/12/28 09:30:50;;;;;;;26.25;4.88;;;;;;;;;;5024771;28;25097;-72
2023/12/28 09:33:16;;;;;;;29.33;6.50;;;;;;;;;;5023684;28;25067;-74
2023/12/28 09:35:42;;;;;;;21.30;4.50;;;;;;;;;;5028207;28;25065;-74
2023/12/28 09:38:08;;;;;;;38.60;5.85;;;;;;;;;;5023624;28;25058;-72
2023/12/28 09:40:39;;;;;;;29.77;5.05;;;;;;;;;;5015808;28;25075;-73
2023/12/28 09:43:07;;;;;;;20.98;5.43;;;;;;;;;;5020186;28;25152;-74
2023/12/28 09:45:33;;;;;;;27.65;5.75;;;;;;;;;;5025971;28;25069;-74
2023/12/28 09:47:59;;;;;;;23.75;5.38;;;;;;;;;;5024171;28;25088;-73
2023/12/28 09:50:26;;;;;;;28.42;6.13;;;;;;;;;;5025761;28;25081;-72
2023/12/28 09:52:53;;;;;;;25.92;4.85;;;;;;;;;;5027518;28;25058;-71
2023/12/28 09:55:19;;;;;;;18.13;4.60;;;;;;;;;;5025419;28;25132;-73
2023/12/28 09:57:46;;;;;;;25.17;5.00;;;;;;;;;;5023689;28;25151;-73
2023/12/28 10:00:12;;;;;;;20.80;5.43;;;;;;;;;;5025166;28;25083;-73
2023/12/28 10:02:40;;;;;;;22.83;4.68;;;;;;;;;;5018925;28;25080;-73
2023/12/28 10:05:07;;;;;;;21.08;4.38;;;;;;;;;;5024095;28;25148;-71
2023/12/28 10:07:33;;;;;;;25.73;5.00;;;;;;;;;;5028353;28;25054;-73
2023/12/28 10:09:58;;;;;;;25.15;5.82;;;;;;;;;;5033476;28;25070;-73
2023/12/28 10:12:27;;;;;;;26.98;5.50;;;;;;;;;;5022982;28;25091;-71
2023/12/28 10:14:54;;;;;;;32.63;6.50;;;;;;;;;;5025270;28;25133;-73
2023/12/28 10:17:20;;;;;;;29.55;5.82;;;;;;;;;;5023126;28;25059;-71
2023/12/28 10:19:47;;;;;;;24.02;5.40;;;;;;;;;;5018960;28;25052;-74
2023/12/28 10:22:15;;;;;;;25.42;5.43;;;;;;;;;;5023136;28;25163;-73
2023/12/28 10:24:42;;;;;;;22.70;4.93;;;;;;;;;;5025035;28;25090;-72
2023/12/28 10:27:08;;;;;;;26.02;5.75;;;;;;;;;;5023015;28;25093;-71
2023/12/28 10:29:34;;;;;;;25.63;4.68;;;;;;;;;;5024059;28;25066;-71
2023/12/28 10:32:01;;;;;;;30.55;5.82;;;;;;;;;;5025306;28;25080;-73
2023/12/28 10:34:27;;;;;;;26.33;5.55;;;;;;;;;;5026859;28;25056;-70
2023/12/28 10:36:53;;;;;;;35.38;4.93;;;;;;;;;;5022052;28;25087;-71
2023/12/28 10:39:20;;;;;;;23.95;5.07;;;;;;;;;;5023108;28;25056;-71
2023/12/28 10:41:49;;;;;;;24.27;5.85;;;;;;;;;;5021547;28;25052;-72
2023/12/28 10:44:18;;;;;;;21.35;4.72;;;;;;;;;;5024197;28;25072;-72
2023/12/28 10:46:44;;;;;;;29.08;5.07;;;;;;;;;;5018649;28;25087;-72
2023/12/28 10:49:14;;;;;;;22.50;6.60;;;;;;;;;;5023798;28;25051;-72
2023/12/28 10:51:43;;;;;;;29.83;6.18;;;;;;;;;;5021661;28;25093;-74
2023/12/28 10:54:27;;;;;;;30.73;4.82;;;;;;;;;;5040384;28;25056;-72
2023/12/28 10:57:00;;;;;;;29.33;5.38;;;;;;;;;;5053531;28;25058;-71
2023/12/28 10:59:27;;;;;;;;;;;;;;;;;;5051923;28;25072;-73
2023/12/28 11:01:55;;;;;;;22.83;4.20;;;;;;;;;;5053671;28;24072;-71
2023/12/28 11:04:24;;;;;;;28.98;5.78;;;;;;;;;;5051341;28;25093;-71
2023/12/28 11:06:51;;;;;;;28.95;5.25;;;;;;;;;;5053382;28;25056;-71
2023/12/28 11:09:17;;;;;;;36.65;6.32;;;;;;;;;;5049475;28;25079;-70
2023/12/28 11:11:47;;;;;;;28.55;4.97;;;;;;;;;;5038419;28;25064;-72
2023/12/28 11:14:14;;;;;;;35.03;6.57;;;;;;;;;;5028558;28;25066;-72
2023/12/28 11:16:41;;;;;;;38.80;5.07;;;;;;;;;;5029511;28;24748;-70
2023/12/28 11:19:07;;;;;;;26.45;4.95;;;;;;;;;;5023847;28;25160;-73
2023/12/28 11:21:33;;;;;;;28.30;5.78;;;;;;;;;;5024952;28;25090;-71
2023/12/28 11:24:00;;;;;;;39.28;5.60;;;;;;;;;;5023371;28;25082;-72
2023/12/28 11:26:27;;;;;;;30.45;5.68;;;;;;;;;;5030100;28;25157;-72
2023/12/28 11:29:01;;;;;;;27.02;5.15;;;;;;;;;;5022557;28;25097;-73
2023/12/28 11:31:27;;;;;;;23.65;5.13;;;;;;;;;;5024567;28;25063;-74
2023/12/28 11:33:53;;;;;;;33.65;6.30;;;;;;;;;;5022031;28;25075;-70
2023/12/28 11:36:24;;;;;;;23.85;5.07;;;;;;;;;;5022657;28;25063;-73
2023/12/28 11:38:54;;;;;;;29.20;5.22;;;;;;;;;;5026704;28;25081;-72
2023/12/28 11:41:23;;;;;;;30.40;5.13;;;;;;;;;;5027837;28;25067;-72
2023/12/28 11:43:52;;;;;;;34.63;6.53;;;;;;;;;;5018519;28;25064;-72
2023/12/28 11:46:19;;;;;;;32.50;5.65;;;;;;;;;;5027789;28;25081;-70
2023/12/28 11:48:45;;;;;;;22.10;5.00;;;;;;;;;;5029781;28;25076;-71
2023/12/28 11:51:11;;;;;;;23.20;4.40;;;;;;;;;;5026462;28;25069;-70
2023/12/28 11:53:37;;;;;;;23.60;5.88;;;;;;;;;;5024330;28;25129;-72
2023/12/28 11:56:04;;;;;;;23.00;5.50;;;;;;;;;;5026256;28;25095;-73
2023/12/28 11:58:30;;;;;;;28.45;5.38;;;;;;;;;;5026792;28;25045;-72
2023/12/28 12:00:57;;;;;;;36.42;7.20;;;;;;;;;;5027641;28;25063;-70
2023/12/28 12:03:26;;;;;;;21.65;4.80;;;;;;;;;;5028281;28;25057;-71
2023/12/28 12:05:54;;;;;;;33.17;5.03;;;;;;;;;;5029862;28;25052;-71
2023/12/28 12:08:20;;;;;;;24.10;5.57;;;;;;;;;;5029866;28;25049;-72
2023/12/28 12:10:46;;;;;;;21.88;5.50;;;;;;;;;;5024944;28;25071;-70
2023/12/28 12:13:12;;;;;;;36.03;5.60;;;;;;;;;;5025684;28;25124;-71
2023/12/28 12:15:38;;;;;;;22.73;6.13;;;;;;;;;;5021589;28;25148;-70
2023/12/28 12:18:04;;;;;;;23.55;5.88;;;;;;;;;;5024803;28;25098;-69
2023/12/28 12:20:31;;;;;;;25.52;5.35;;;;;;;;;;5019416;28;25067;-72
2023/12/28 12:23:00;;;;;;;21.73;5.13;;;;;;;;;;5024310;28;25058;-71
2023/12/28 12:25:26;;;;;;;26.75;5.10;;;;;;;;;;5025646;28;25141;-71
2023/12/28 12:27:52;;;;;;;31.35;6.03;;;;;;;;;;5030267;28;25197;-70
2023/12/28 12:30:19;;;;;;;26.40;6.03;;;;;;;;;;5022162;28;25156;-71
2023/12/28 12:32:45;;;;;;;29.27;5.82;;;;;;;;;;5025374;28;25062;-70
2023/12/28 12:35:11;;;;;;;32.28;5.47;;;;;;;;;;5023319;28;25065;-72
2023/12/28 12:37:38;;;;;;;25.63;5.70;;;;;;;;;;5029922;28;25058;-71
2023/12/28 12:40:05;;;;;;;24.25;5.72;;;;;;;;;;5023519;28;25079;-70
2023/12/28 12:42:31;;;;;;;26.25;5.88;;;;;;;;;;5025374;28;25049;-70
2023/12/28 12:44:57;;;;;;;28.50;6.32;;;;;;;;;;5022289;28;25056;-70
2023/12/28 12:47:23;;;;;;;27.60;5.70;;;;;;;;;;5019761;28;25099;-70
2023/12/28 12:49:52;;;;;;;28.38;5.70;;;;;;;;;;5019698;28;25085;-70
2023/12/28 12:52:23;;;;;;;27.23;5.82;;;;;;;;;;5024320;28;25066;-69
2023/12/28 12:54:58;;;;;;;29.77;6.63;;;;;;;;;;5025318;28;25147;-71
2023/12/28 12:57:28;;;;;;;30.45;6.00;;;;;;;;;;5019609;28;25088;-71
2023/12/28 12:59:54;;;;;;;32.28;5.00;;;;;;;;;;5023923;28;25071;-70
2023/12/28 13:02:23;;;;;;;26.70;5.38;;;;;;;;;;5021722;28;25078;-71
2023/12/28 13:04:52;;;;;;;37.35;7.32;;;;;;;;;;5020360;28;25148;-69
2023/12/28 13:07:18;;;;;;;25.40;5.38;;;;;;;;;;5024465;28;25086;-70
2023/12/28 13:09:44;;;;;;;26.83;6.35;;;;;;;;;;5024719;28;25141;-69
2023/12/28 13:12:10;;;;;;;25.48;4.68;;;;;;;;;;5020723;28;25159;-69
2023/12/28 13:14:36;;;;;;;24.33;5.10;;;;;;;;;;5023757;28;25112;-70
2023/12/28 13:17:02;;;;;;;28.40;6.10;;;;;;;;;;5024897;28;25135;-70
2023/12/28 13:19:28;;;;;;;30.77;5.70;;;;;;;;;;5026939;28;25080;-70
2023/12/28 13:21:54;;;;;;;36.63;6.72;;;;;;;;;;5024242;28;25092;-68
2023/12/28 13:24:20;;;;;;;26.55;5.47;;;;;;;;;;5021920;28;25100;-71
2023/12/28 13:26:46;;;;;;;30.90;5.85;;;;;;;;;;5017105;28;25064;-69
2023/12/28 13:29:12;;;;;;;39.17;6.50;;;;;;;;;;5024153;28;25068;-69
2023/12/28 13:31:39;;;;;;;27.63;5.03;;;;;;;;;;5025902;28;25121;-71
2023/12/28 13:34:05;;;;;;;24.77;5.25;;;;;;;;;;5022627;28;25068;-70
2023/12/28 13:36:31;;;;;;;27.27;5.75;;;;;;;;;;5024311;28;25076;-71
2023/12/28 13:38:57;;;;;;;29.25;5.80;;;;;;;;;;5021662;28;25070;-70
2023/12/28 13:41:23;;;;;;;27.33;4.75;;;;;;;;;;5022926;28;25080;-69
2023/12/28 13:43:49;;;;;;;31.42;6.85;;;;;;;;;;5024442;28;25068;-68
2023/12/28 13:46:15;;;;;;;22.85;4.63;;;;;;;;;;5023465;28;25150;-70
2023/12/28 13:48:42;;;;;;;31.65;6.78;;;;;;;;;;5025633;28;25062;-69
2023/12/28 13:51:08;;;;;;;28.45;6.03;;;;;;;;;;5021622;28;25065;-71
2023/12/28 13:53:40;;;;;;;29.02;5.35;;;;;;;;;;5023331;28;25072;-70
2023/12/28 13:56:06;;;;;;;23.98;4.07;;;;;;;;;;5020868;28;25071;-71
2023/12/28 13:58:32;;;;;;;23.38;4.85;;;;;;;;;;5023588;28;25062;-70
2023/12/28 14:00:58;;;;;;;26.58;5.75;;;;;;;;;;5023142;28;25068;-70
2023/12/28 14:03:24;;;;;;;19.17;5.90;;;;;;;;;;5022371;28;25087;-71
2023/12/28 14:05:50;;;;;;;25.58;5.80;;;;;;;;;;5021009;28;25067;-70
2023/12/28 14:08:16;;;;;;;21.33;5.28;;;;;;;;;;5023678;28;25091;-71
2023/12/28 14:10:42;;;;;;;31.27;6.32;;;;;;;;;;5022535;28;25058;-70
2023/12/28 14:13:08;;;;;;;26.60;5.53;;;;;;;;;;5024334;28;25076;-70
2023/12/28 14:15:34;;;;;;;24.48;4.80;;;;;;;;;;5022415;28;25087;-71
2023/12/28 14:18:00;;;;;;;23.10;5.68;;;;;;;;;;5021751;28;25106;-70
2023/12/28 14:20:27;;;;;;;29.20;6.07;;;;;;;;;;5022657;28;25052;-70
2023/12/28 14:22:53;;;;;;;27.25;4.40;;;;;;;;;;5021765;28;25073;-70
2023/12/28 14:25:19;;;;;;;29.42;5.03;;;;;;;;;;5019814;28;25091;-69
2023/12/28 14:27:46;;;;;;;25.02;5.18;;;;;;;;;;5018658;28;25112;-71